Other Surface Observations
Issued by NWS Great Falls, MT

Home | Current Version | Previous Version | Text Only | Print | Product List | Glossary On
Versions: 1 2 3 4 5 6 7 8 9 10 11 12 13 14 15 16 17 18 19 20 21 22 23 24 25 26 27 28 29 30 31 32 33 34 35 36 37 38 39 40 41 42 43 44 45 46 47 48 49 50
464
SXUS55 KTFX 192329
OSOTFX
AREA AWOS OBSERVATIONS
NATIONAL WEATHER SERVICE GREAT FALLS MT
0529 PM MDT SAT AUG 19 2017

METAR KPWD 192330Z AUTO 33018G27KT 10SM 24/03 A2986 RMK PLENTYWOOD
METAR KPO1 192330Z AUTO 33011KT 9SM 26/06 A2987 RMK POPLAR
METAR KS71 192330Z AUTO 32006KT 10SM 25/04 A2994 RMK CHINOOK
METAR K38S 192330Z AUTO 31018G23KT 3SM 23/03 A3002 RMK DEER LODGE
METAR K3U3 192330Z AUTO 27011G19KT 10SM 26/M04 A3001 RMK ANACONDA
METAR K6S5 192330Z AUTO 28007KT 6SM 25/04 A3000 RMK HAMILTON
METAR KS59 192330Z AUTO 28007G14KT 10SM 26/03 A2997 RMK LIBBY
METAR K88M 192330Z AUTO 10SM 26/02 A2995 RMK EUREKA



USA.gov is the U.S. government's official web portal to all federal, state and local government web resources and services.